Time;durP1;ratioP1;P1;durP2;ratioP2;P2;SDS_P1;SDS_P2;PMS_P1;PMS_P2;Temp;Humidity;BMP_temperature;BMP_pressure;BME280_temperature;BME280_humidity;BME280_pressure;Samples;Min_cycle;Max_cycle;Signal;HPM_P1;HPM_P2
2023/04/10 00:02:25;;;;;;;32.00;22.30;;;;;;;22.83;43.00;100610.38;108163;1253;60348;-66
2023/04/10 00:04:54;;;;;;;30.50;20.20;;;;;;;22.86;42.94;100611.15;108137;1253;74468;-67
2023/04/10 00:07:22;;;;;;;28.10;20.30;;;;;;;22.98;42.82;100612.72;108001;1253;70605;-65
2023/04/10 00:09:48;;;;;;;27.60;19.60;;;;;;;22.82;43.08;100612.22;108188;1253;60264;-67
2023/04/10 00:12:16;;;;;;;30.50;21.00;;;;;;;22.89;42.91;100617.05;108172;1253;62589;-66
2023/04/10 00:14:51;;;;;;;35.40;21.80;;;;;;;22.84;43.08;100616.20;108185;1253;61323;-66
2023/04/10 00:17:18;;;;;;;39.80;22.00;;;;;;;22.47;43.62;100617.34;108199;1253;74732;-67
2023/04/10 00:19:44;;;;;;;32.50;22.40;;;;;;;22.74;43.22;100612.69;108199;1252;69858;-67
2023/04/10 00:22:15;;;;;;;;;;;;;;;22.81;43.10;100614.11;108171;1252;74143;-67
2023/04/10 00:24:43;;;;;;;36.60;22.70;;;;;;;22.90;42.75;100613.70;108161;1253;63250;-65
2023/04/10 00:27:13;;;;;;;32.90;22.40;;;;;;;22.84;43.07;100609.37;108139;1253;61329;-67
2023/04/10 00:29:40;;;;;;;35.40;22.50;;;;;;;22.59;43.45;100611.90;108146;1253;75098;-67
2023/04/10 00:32:17;;;;;;;30.80;22.90;;;;;;;22.68;43.30;100612.25;108151;1253;69516;-67
2023/04/10 00:34:51;;;;;;;36.50;23.30;;;;;;;22.46;43.45;100608.67;108149;1255;73433;-66
2023/04/10 00:37:20;;;;;;;35.40;23.70;;;;;;;22.51;43.48;100606.61;108153;1253;62565;-67
2023/04/10 00:39:46;;;;;;;38.50;23.90;;;;;;;22.30;43.71;100607.75;107922;1252;60951;-66
2023/04/10 00:42:13;;;;;;;34.20;23.40;;;;;;;22.17;44.12;100609.50;108139;1252;74055;-66
2023/04/10 00:44:40;;;;;;;38.10;23.70;;;;;;;22.18;44.04;100610.27;108129;1253;70553;-65
2023/04/10 00:47:06;;;;;;;35.50;23.40;;;;;;;22.33;43.95;100609.84;108136;1253;72660;-67
2023/04/10 00:49:34;;;;;;;34.40;24.00;;;;;;;22.37;43.62;100606.80;108097;1255;62009;-65
2023/04/10 00:52:00;;;;;;;35.50;24.60;;;;;;;22.44;43.74;100607.55;108127;1253;60598;-67
2023/04/10 00:54:28;;;;;;;39.60;25.10;;;;;;;22.45;43.58;100605.89;108146;1253;74823;-66
2023/04/10 00:56:56;;;;;;;36.70;24.60;;;;;;;22.54;43.50;100605.53;108045;1253;69645;-65
2023/04/10 00:59:22;;;;;;;37.20;24.00;;;;;;;22.56;43.49;100607.67;108035;1259;73919;-66
2023/04/10 01:01:51;;;;;;;35.70;24.20;;;;;;;22.73;43.20;100606.27;108054;1253;63275;-66
2023/04/10 01:04:20;;;;;;;35.20;24.20;;;;;;;22.86;42.81;100607.59;108102;1253;60404;-65
2023/04/10 01:07:13;;;;;;;33.20;23.90;;;;;;;22.47;43.50;100609.09;108185;1257;74855;-66
2023/04/10 01:09:50;;;;;;;35.20;24.10;;;;;;;22.43;43.66;100608.31;108082;1258;71658;-65
2023/04/10 01:12:27;;;;;;;36.20;23.70;;;;;;;21.91;44.49;100602.34;108057;1257;72576;-65
2023/04/10 01:15:09;;;;;;;36.40;23.50;;;;;;;22.32;43.99;100605.31;108098;1253;61343;-66
2023/04/10 01:17:42;;;;;;;36.90;24.50;;;;;;;22.35;43.81;100605.91;107996;1253;62238;-66
2023/04/10 01:20:12;;;;;;;35.10;24.10;;;;;;;22.42;43.76;100603.57;107925;1254;73857;-66
2023/04/10 01:23:17;;;;;;;36.70;23.30;;;;;;;22.53;43.62;100603.29;108019;1257;70531;-66
2023/04/10 01:26:02;;;;;;;42.60;23.90;;;;;;;22.74;43.34;100603.02;108108;1253;72998;-67
2023/04/10 01:28:51;;;;;;;34.60;23.70;;;;;;;22.83;43.13;100603.54;107910;1253;61137;-66
2023/04/10 01:31:28;;;;;;;36.50;23.10;;;;;;;22.63;43.32;100600.30;107915;1253;60444;-67
2023/04/10 01:33:59;;;;;;;37.90;22.70;;;;;;;22.68;43.36;100600.25;108010;1253;75013;-67
2023/04/10 01:36:30;;;;;;;39.60;24.20;;;;;;;22.08;44.26;100598.77;108149;1257;69983;-65
2023/04/10 01:38:57;;;;;;;35.10;22.20;;;;;;;22.01;44.58;100598.36;107915;1253;72078;-66
2023/04/10 01:41:24;;;;;;;36.60;22.90;;;;;;;21.98;44.59;100598.73;107931;1253;63290;-65
2023/04/10 01:43:51;;;;;;;31.30;22.30;;;;;;;22.03;44.52;100595.48;107878;1253;60294;-65
2023/04/10 01:46:19;;;;;;;33.70;22.90;;;;;;;21.61;45.39;100597.52;107928;1253;72712;-61
2023/04/10 01:48:51;;;;;;;35.50;24.20;;;;;;;21.64;45.36;100599.61;107950;1253;71355;-65
2023/04/10 01:51:17;;;;;;;34.40;23.20;;;;;;;21.64;45.34;100599.20;107874;1253;72060;-63
2023/04/10 01:53:47;;;;;;;27.60;19.90;;;;;;;22.02;44.63;100601.16;107989;1253;60386;-66
2023/04/10 01:56:14;;;;;;;32.80;23.60;;;;;;;22.02;44.71;100600.23;108071;1253;60497;-66
2023/04/10 01:58:44;;;;;;;34.60;23.10;;;;;;;21.91;44.90;100600.54;108145;1253;74830;-65
2023/04/10 02:01:17;;;;;;;30.10;20.80;;;;;;;22.07;44.63;100603.78;108078;1253;71620;-66
2023/04/10 02:03:57;;;;;;;37.00;24.80;;;;;;;22.32;44.32;100606.52;108041;1253;70527;-65
2023/04/10 02:06:31;;;;;;;38.30;24.80;;;;;;;22.57;43.79;100604.34;108134;1258;63033;-66
2023/04/10 02:09:10;;;;;;;40.50;24.50;;;;;;;21.94;44.90;100606.02;107996;1253;61376;-68
2023/04/10 02:11:47;;;;;;;39.50;25.80;;;;;;;22.15;44.64;100606.94;108100;1253;74668;-65
2023/04/10 02:14:16;;;;;;;37.00;26.00;;;;;;;22.53;44.20;100608.67;108003;1253;70094;-64
2023/04/10 02:16:44;;;;;;;29.00;19.10;;;;;;;22.65;43.79;100605.86;108212;1253;71958;-65
2023/04/10 02:19:11;;;;;;;38.00;25.60;;;;;;;22.52;43.96;100607.61;108142;1253;62418;-64
2023/04/10 02:21:44;;;;;;;42.60;28.30;;;;;;;22.39;44.18;100605.96;108000;1253;61178;-65
2023/04/10 02:24:10;;;;;;;40.10;26.30;;;;;;;22.46;44.15;100607.95;107959;1253;74732;-65
2023/04/10 02:26:46;;;;;;;42.70;27.10;;;;;;;22.51;44.02;100605.44;107992;1253;71363;-66
2023/04/10 02:29:20;;;;;;;36.80;25.80;;;;;;;22.56;43.82;100611.23;108084;1256;73541;-64
2023/04/10 02:31:47;;;;;;;40.00;26.40;;;;;;;22.56;43.87;100612.81;108068;1253;63027;-63
2023/04/10 02:34:14;;;;;;;44.60;26.80;;;;;;;22.49;44.04;100613.21;107818;1255;61312;-64
2023/04/10 02:36:41;;;;;;;44.70;27.40;;;;;;;22.46;44.26;100614.16;108016;1253;73420;-66
2023/04/10 02:39:09;;;;;;;37.60;26.10;;;;;;;22.37;44.20;100610.60;107984;1253;71481;-63
2023/04/10 02:41:43;;;;;;;37.70;26.80;;;;;;;22.42;44.04;100613.26;107897;1253;72692;-63
2023/04/10 02:44:12;;;;;;;44.80;27.60;;;;;;;22.29;44.32;100611.73;107924;1254;61686;-64
2023/04/10 02:46:40;;;;;;;41.30;27.20;;;;;;;22.34;44.16;100613.39;107963;1256;60298;-62
2023/04/10 02:49:07;;;;;;;43.20;27.60;;;;;;;22.43;44.00;100616.21;108083;1256;74952;-62
2023/04/10 02:51:35;;;;;;;38.20;26.80;;;;;;;22.34;44.18;100617.45;107893;1253;71627;-64
2023/04/10 02:54:02;;;;;;;40.70;26.60;;;;;;;22.33;44.36;100616.99;108137;1253;73559;-63
2023/04/10 02:56:33;;;;;;;42.20;26.80;;;;;;;22.23;44.42;100618.30;108147;1253;61660;-64
2023/04/10 02:59:00;;;;;;;36.80;26.30;;;;;;;22.27;44.31;100616.73;108177;1253;60354;-65
2023/04/10 03:01:28;;;;;;;36.30;25.10;;;;;;;22.34;44.11;100618.02;108123;1253;73887;-64
2023/04/10 03:03:56;;;;;;;39.10;26.80;;;;;;;22.27;44.13;100617.86;108081;1253;70815;-64
2023/04/10 03:06:30;;;;;;;43.40;27.10;;;;;;;22.31;44.18;100621.98;107962;1253;71990;-64
2023/04/10 03:08:57;;;;;;;42.30;28.00;;;;;;;22.39;43.99;100622.27;108059;1253;62038;-63
2023/04/10 03:11:26;;;;;;;42.90;28.50;;;;;;;22.19;44.39;100618.23;108148;1253;61203;-63
2023/04/10 03:13:53;;;;;;;41.40;27.10;;;;;;;22.11;44.35;100619.09;108130;1253;75039;-63
2023/04/10 03:16:21;;;;;;;39.70;27.50;;;;;;;22.06;44.42;100618.67;108133;1253;70394;-64
2023/04/10 03:18:48;;;;;;;40.00;25.80;;;;;;;22.20;44.19;100618.21;107950;1258;72717;-66
2023/04/10 03:21:19;;;;;;;;;;;;;;;22.34;44.02;100622.60;108084;1257;61885;-68
2023/04/10 03:23:46;;;;;;;35.80;24.10;;;;;;;22.40;43.94;100622.00;108122;1253;60345;-66
2023/04/10 03:26:12;;;;;;;36.60;24.60;;;;;;;22.29;44.01;100622.09;107924;1258;72005;-68
2023/04/10 03:28:40;;;;;;;36.70;23.60;;;;;;;22.01;44.51;100618.58;108133;1253;71543;-67
2023/04/10 03:31:11;;;;;;;41.30;26.10;;;;;;;22.21;44.13;100620.05;108115;1256;71907;-65
2023/04/10 03:33:39;;;;;;;36.00;23.60;;;;;;;22.27;43.92;100624.27;108068;1258;60270;-67
2023/04/10 03:36:06;;;;;;;37.30;25.10;;;;;;;22.18;44.03;100625.83;108002;1253;60573;-66
2023/04/10 03:38:34;;;;;;;36.60;24.80;;;;;;;22.02;44.26;100624.00;108018;1254;74798;-66
2023/04/10 03:41:02;;;;;;;35.60;24.40;;;;;;;21.93;44.43;100625.92;108155;1256;71568;-65
2023/04/10 03:43:31;;;;;;;43.50;26.50;;;;;;;22.01;44.28;100625.33;108020;1258;73533;-66
2023/04/10 03:45:57;;;;;;;33.10;23.50;;;;;;;22.31;43.54;100625.35;107968;1253;61308;-67
2023/04/10 03:48:27;;;;;;;34.10;23.30;;;;;;;22.09;43.88;100624.92;107994;1253;61339;-66
2023/04/10 03:50:54;;;;;;;34.30;24.00;;;;;;;21.93;44.16;100628.80;108170;1253;72044;-66
2023/04/10 03:53:22;;;;;;;35.80;23.20;;;;;;;21.92;44.03;100626.56;108190;1253;69025;-65
2023/04/10 03:55:51;;;;;;;30.40;22.30;;;;;;;22.14;43.79;100627.93;108007;1253;72182;-65
2023/04/10 03:58:21;;;;;;;34.40;22.00;;;;;;;22.06;43.68;100627.45;107980;1253;63005;-66
2023/04/10 04:00:49;;;;;;;35.30;22.50;;;;;;;21.81;44.48;100631.69;108147;1253;60006;-65
2023/04/10 04:03:22;;;;;;;38.90;22.00;;;;;;;21.87;44.21;100635.69;108221;1253;74790;-67
2023/04/10 04:05:59;;;;;;;31.10;21.50;;;;;;;21.77;44.46;100636.66;108073;1253;70852;-66
2023/04/10 04:08:37;;;;;;;38.20;22.50;;;;;;;21.83;44.32;100637.77;107981;1252;73904;-67
2023/04/10 04:11:10;;;;;;;39.40;24.20;;;;;;;21.96;44.01;100638.10;107957;1253;62857;-66
2023/04/10 04:13:50;;;;;;;34.90;22.90;;;;;;;21.73;44.40;100646.23;108167;1252;61151;-66
2023/04/10 04:16:43;;;;;;;39.20;23.30;;;;;;;21.67;44.60;100641.52;108144;1253;71531;-67
2023/04/10 04:19:35;;;;;;;33.80;22.90;;;;;;;21.90;44.14;100649.05;108151;1253;69878;-66
2023/04/10 04:22:11;;;;;;;32.90;23.40;;;;;;;21.84;44.27;100647.20;108137;1253;73768;-66
2023/04/10 04:24:56;;;;;;;33.50;22.40;;;;;;;21.95;43.83;100647.41;108026;1253;61939;-65
2023/04/10 04:27:49;;;;;;;36.10;22.90;;;;;;;22.01;43.98;100653.94;107903;1253;60564;-65
2023/04/10 04:30:37;;;;;;;35.40;22.40;;;;;;;22.00;43.78;100652.94;108170;1253;75120;-67
2023/04/10 04:33:15;;;;;;;39.00;24.60;;;;;;;22.32;43.29;100651.23;108142;1254;71468;-66
2023/04/10 04:36:03;;;;;;;38.10;23.20;;;;;;;22.30;43.37;100653.69;108011;1253;73891;-64
2023/04/10 04:38:50;;;;;;;40.70;24.90;;;;;;;22.22;43.23;100655.07;108030;1254;62811;-66
2023/04/10 04:41:31;;;;;;;35.80;22.30;;;;;;;22.23;43.30;100657.45;108177;1253;61309;-67
2023/04/10 04:44:10;;;;;;;40.30;24.10;;;;;;;22.13;43.41;100655.04;108195;1253;75008;-65
2023/04/10 04:46:59;;;;;;;36.90;24.20;;;;;;;22.26;43.07;100660.96;107832;1254;70944;-66
2023/04/10 04:49:52;;;;;;;39.70;23.40;;;;;;;22.59;42.61;100658.20;107950;1253;71762;-67
2023/04/10 04:52:39;;;;;;;42.40;25.10;;;;;;;22.38;43.08;100662.05;108189;1253;63226;-67
2023/04/10 04:55:44;;;;;;;36.80;24.20;;;;;;;22.20;43.33;100663.95;107619;1260;61398;-66
2023/04/10 04:58:51;;;;;;;38.60;23.60;;;;;;;22.41;42.84;100664.48;107347;1263;73667;-68
2023/04/10 05:01:47;;;;;;;34.50;22.00;;;;;;;22.18;43.16;100669.11;107252;1260;70468;-66
2023/04/10 05:04:40;;;;;;;49.70;26.40;;;;;;;22.41;42.76;100672.23;108040;1257;72783;-67
2023/04/10 05:07:24;;;;;;;42.10;23.40;;;;;;;22.40;42.67;100670.81;108117;1253;60226;-67
2023/04/10 05:09:51;;;;;;;40.90;23.50;;;;;;;22.37;42.66;100670.38;108085;1257;60607;-65
2023/04/10 05:12:37;;;;;;;45.70;24.60;;;;;;;22.39;42.61;100675.92;108101;1253;74211;-66
2023/04/10 05:15:18;;;;;;;43.90;23.80;;;;;;;22.68;42.10;100676.17;108129;1253;70593;-67
2023/04/10 05:18:22;;;;;;;35.00;20.70;;;;;;;22.54;42.25;100679.61;107779;1253;72585;-66
2023/04/10 05:21:15;;;;;;;40.20;23.80;;;;;;;22.71;41.77;100684.84;108082;1255;62303;-66
2023/04/10 05:24:04;;;;;;;37.80;22.60;;;;;;;22.90;41.54;100686.39;108009;1255;61126;-67
2023/04/10 05:26:46;;;;;;;34.70;22.40;;;;;;;22.64;41.86;100685.19;107906;1253;72874;-68
2023/04/10 05:29:29;;;;;;;39.40;23.60;;;;;;;22.67;41.82;100686.08;107949;1254;70653;-67
2023/04/10 05:32:15;;;;;;;40.30;25.20;;;;;;;23.00;41.44;100684.67;108072;1257;72105;-67
2023/04/10 05:34:52;;;;;;;41.00;24.40;;;;;;;23.22;41.05;100682.90;108075;1252;61788;-66
2023/04/10 05:37:31;;;;;;;40.30;22.90;;;;;;;23.02;41.42;100685.67;108132;1253;60525;-67
2023/04/10 05:40:08;;;;;;;41.20;23.60;;;;;;;23.16;41.19;100685.43;107980;1253;75148;-67
2023/04/10 05:42:50;;;;;;;39.10;23.90;;;;;;;23.23;40.97;100685.35;108101;1253;69390;-67
2023/04/10 05:45:43;;;;;;;39.50;22.30;;;;;;;22.70;41.97;100687.40;107799;1253;74054;-67
2023/04/10 05:48:24;;;;;;;42.40;23.70;;;;;;;22.92;41.64;100688.38;108074;1257;62991;-67
2023/04/10 05:51:17;;;;;;;34.50;21.20;;;;;;;22.66;42.05;100689.77;107840;1256;61218;-68
2023/04/10 05:54:03;;;;;;;31.70;20.80;;;;;;;23.12;41.22;100688.58;108078;1254;73696;-66
2023/04/10 05:57:05;;;;;;;34.70;20.60;;;;;;;23.34;40.86;100689.52;108018;1254;71063;-67
2023/04/10 05:59:50;;;;;;;32.00;21.30;;;;;;;23.55;40.48;100693.00;108071;1257;73770;-66
2023/04/10 06:02:36;;;;;;;30.70;19.40;;;;;;;23.63;40.30;100693.95;108080;1253;61920;-68
2023/04/10 06:05:06;;;;;;;36.30;21.00;;;;;;;23.56;40.07;100696.27;108159;1257;60315;-67
2023/04/10 06:07:36;;;;;;;32.60;19.10;;;;;;;23.69;39.79;100697.57;108089;1257;73999;-67
2023/04/10 06:10:05;;;;;;;30.80;18.50;;;;;;;23.66;39.95;100698.93;108067;1257;71876;-66
2023/04/10 06:12:34;;;;;;;29.00;18.80;;;;;;;23.64;40.14;100700.65;107986;1255;71745;-66
2023/04/10 06:15:01;;;;;;;31.90;19.10;;;;;;;23.69;39.78;100704.71;108051;1257;63186;-67
2023/04/10 06:17:29;;;;;;;35.70;19.10;;;;;;;23.64;39.87;100707.29;108074;1257;61475;-67
2023/04/10 06:19:58;;;;;;;33.00;19.70;;;;;;;23.65;39.95;100705.10;107946;1254;74064;-67
2023/04/10 06:22:31;;;;;;;36.30;20.00;;;;;;;23.67;39.92;100708.50;108061;1254;70381;-66
2023/04/10 06:25:01;;;;;;;31.50;20.00;;;;;;;23.83;39.61;100707.88;108012;1254;73907;-66
2023/04/10 06:27:28;;;;;;;29.20;19.40;;;;;;;23.56;39.94;100707.60;108019;1254;61181;-68
2023/04/10 06:29:59;;;;;;;31.10;20.20;;;;;;;23.65;40.12;100711.01;108070;1254;60456;-67
2023/04/10 06:32:26;;;;;;;39.00;20.40;;;;;;;23.79;39.81;100713.06;108124;1256;74618;-67
2023/04/10 06:34:53;;;;;;;34.80;20.60;;;;;;;23.78;39.68;100712.40;108000;1254;71498;-67
2023/04/10 06:37:28;;;;;;;35.00;20.60;;;;;;;23.46;39.94;100707.88;108061;1257;72683;-67
2023/04/10 06:40:09;;;;;;;41.40;22.50;;;;;;;23.09;40.65;100713.38;108171;1256;61545;-67
2023/04/10 06:42:36;;;;;;;33.70;21.30;;;;;;;22.91;40.98;100706.21;108081;1257;61372;-67
2023/04/10 06:45:10;;;;;;;37.00;20.70;;;;;;;22.83;41.22;100707.52;107988;1258;74708;-67
2023/04/10 06:47:38;;;;;;;32.90;21.00;;;;;;;22.75;41.49;100708.36;108067;1257;69539;-66
2023/04/10 06:50:14;;;;;;;42.60;22.90;;;;;;;22.86;41.31;100707.33;108147;1256;71718;-67
2023/04/10 06:52:43;;;;;;;38.00;21.70;;;;;;;22.89;41.38;100707.79;108168;1254;63185;-66
2023/04/10 06:55:11;;;;;;;41.80;22.30;;;;;;;22.64;41.92;100707.97;108268;1253;60538;-67
2023/04/10 06:57:58;;;;;;;36.30;20.80;;;;;;;22.93;41.30;100712.66;108265;1254;76071;-67
2023/04/10 07:00:30;;;;;;;33.40;18.60;;;;;;;23.07;41.02;100715.36;108223;1256;70524;-67
2023/04/10 07:02:57;;;;;;;34.00;21.00;;;;;;;23.15;40.70;100712.02;108152;1254;73857;-66
2023/04/10 07:05:24;;;;;;;36.00;20.40;;;;;;;23.12;40.80;100716.15;108188;1256;63592;-68
2023/04/10 07:07:52;;;;;;;33.90;20.20;;;;;;;23.33;40.48;100714.48;108176;1253;60448;-66
2023/04/10 07:10:20;;;;;;;37.10;20.70;;;;;;;23.16;40.79;100715.47;108276;1254;75011;-67
2023/04/10 07:12:47;;;;;;;40.10;21.50;;;;;;;23.01;41.17;100721.36;108191;1254;71222;-68
2023/04/10 07:15:20;;;;;;;37.90;22.00;;;;;;;22.54;41.86;100719.48;108132;1256;72376;-67
2023/04/10 07:17:48;;;;;;;39.70;22.20;;;;;;;22.25;42.56;100724.75;108115;1254;63195;-66
2023/04/10 07:20:14;;;;;;;44.50;22.60;;;;;;;22.35;42.52;100727.95;108118;1255;60275;-66
2023/04/10 07:22:42;;;;;;;31.20;19.40;;;;;;;22.34;42.56;100731.20;108167;1255;75012;-65
2023/04/10 07:25:13;;;;;;;40.30;21.90;;;;;;;22.47;42.38;100730.54;108247;1254;70246;-68
2023/04/10 07:27:43;;;;;;;40.40;22.00;;;;;;;23.11;41.28;100730.72;108126;1257;73906;-67
2023/04/10 07:30:12;;;;;;;35.50;20.10;;;;;;;23.20;41.16;100728.80;108125;1254;63165;-67
2023/04/10 07:32:41;;;;;;;40.50;20.90;;;;;;;23.55;40.46;100730.38;108174;1252;61245;-67
2023/04/10 07:35:08;;;;;;;47.00;22.90;;;;;;;23.56;40.48;100733.39;108164;1254;72817;-66
2023/04/10 07:37:38;;;;;;;24.50;16.70;;;;;;;23.44;40.77;100735.95;108137;1257;71563;-67
2023/04/10 07:42:32;;;;;;;22.20;14.40;;;;;;;18.01;52.29;100750.60;104912;1289;600393;-67
2023/04/10 07:45:01;;;;;;;21.90;14.60;;;;;;;19.41;49.59;100746.20;107390;1267;63235;-67
2023/04/10 07:47:30;;;;;;;26.00;15.20;;;;;;;19.91;48.67;100753.09;108125;1253;61494;-65
2023/04/10 07:49:58;;;;;;;15.90;12.50;;;;;;;20.36;47.88;100748.66;108193;1256;73517;-67
2023/04/10 07:52:26;;;;;;;20.60;14.20;;;;;;;20.41;47.51;100755.48;108193;1254;70693;-66
2023/04/10 07:54:54;;;;;;;21.60;14.30;;;;;;;20.90;46.69;100749.41;108161;1253;72925;-67
2023/04/10 07:57:23;;;;;;;19.00;13.40;;;;;;;21.21;46.16;100747.59;107995;1254;159574;-67
2023/04/10 07:59:51;;;;;;;20.60;14.20;;;;;;;21.30;45.97;100746.06;108217;1254;61056;-68
2023/04/10 08:02:20;;;;;;;19.70;13.20;;;;;;;21.47;45.69;100751.27;108216;1253;73354;-67
2023/04/10 08:04:49;;;;;;;444.30;184.50;;;;;;;21.56;45.58;100754.53;108221;1253;71658;-67
2023/04/10 08:07:20;;;;;;;445.20;190.20;;;;;;;21.33;46.12;100754.79;108145;1254;73951;-67
2023/04/10 08:09:48;;;;;;;48.60;27.10;;;;;;;21.61;46.28;100753.10;108165;1253;61268;-67
2023/04/10 08:12:19;;;;;;;21.00;14.10;;;;;;;21.83;46.31;100752.36;108199;1252;60420;-67
2023/04/10 08:14:48;;;;;;;21.40;14.00;;;;;;;22.10;45.79;100747.88;108194;1253;71887;-65
2023/04/10 08:17:21;;;;;;;42.10;26.10;;;;;;;22.09;45.29;100749.17;108280;1253;70093;-66
2023/04/10 08:19:51;;;;;;;25.90;17.80;;;;;;;21.99;45.46;100752.06;108287;1253;71872;-65
2023/04/10 08:22:20;;;;;;;16.50;11.20;;;;;;;22.15;45.25;100747.84;108270;1253;63431;-67
2023/04/10 08:24:52;;;;;;;15.50;11.00;;;;;;;22.20;44.65;100748.33;108241;1254;60746;-67
2023/04/10 08:27:39;;;;;;;17.60;11.60;;;;;;;22.36;44.28;100749.27;108269;1256;75734;-67
2023/04/10 08:30:08;;;;;;;15.90;11.40;;;;;;;22.40;44.67;100750.58;108238;1253;71293;-65
2023/04/10 08:32:46;;;;;;;15.50;10.60;;;;;;;22.47;44.46;100748.84;108237;1256;72084;-66
2023/04/10 08:35:21;;;;;;;20.00;13.50;;;;;;;22.46;44.53;100753.58;108284;1254;63173;-66
2023/04/10 08:37:50;;;;;;;16.70;12.10;;;;;;;22.50;44.72;100755.60;108293;1254;60826;-66
2023/04/10 08:40:38;;;;;;;17.70;13.50;;;;;;;22.54;44.00;100755.63;108290;1252;71905;-67
2023/04/10 08:43:10;;;;;;;18.70;13.10;;;;;;;22.88;43.85;100744.21;108075;1254;70712;-66
2023/04/10 08:45:40;;;;;;;17.70;12.70;;;;;;;23.46;43.15;100744.77;108183;1254;73853;-67
2023/04/10 08:48:08;;;;;;;19.00;13.00;;;;;;;23.69;41.51;100737.50;108224;1253;62005;-66
2023/04/10 08:50:40;;;;;;;19.20;12.70;;;;;;;23.93;41.59;100745.63;108052;1254;60694;-67
2023/04/10 08:53:10;;;;;;;;;;;;;;;24.21;40.24;100741.44;108205;1254;73961;-67
2023/04/10 08:55:43;;;;;;;14.80;11.30;;;;;;;24.32;39.52;100740.90;108297;1251;70351;-67
2023/04/10 08:58:12;;;;;;;15.10;11.40;;;;;;;24.48;39.83;100742.05;108307;1251;71412;-67
2023/04/10 09:00:40;;;;;;;15.30;10.90;;;;;;;24.20;40.34;100744.41;108269;1251;61194;-66
2023/04/10 09:03:10;;;;;;;18.20;10.80;;;;;;;24.33;38.94;100748.13;108202;1251;60616;-68
2023/04/10 09:05:39;;;;;;;14.90;10.60;;;;;;;24.01;39.64;100749.46;108262;1251;73992;-66
2023/04/10 09:08:08;;;;;;;17.40;12.00;;;;;;;24.21;39.40;100746.34;108282;1250;70727;-67
2023/04/10 09:10:36;;;;;;;17.40;12.60;;;;;;;24.14;39.25;100750.30;108317;1251;73915;-67
2023/04/10 09:13:04;;;;;;;16.30;12.30;;;;;;;24.38;38.88;100742.03;108332;1251;61510;-66
2023/04/10 09:15:57;;;;;;;20.30;12.70;;;;;;;24.20;39.40;100743.75;108251;1251;59831;-66
2023/04/10 09:18:47;;;;;;;16.40;10.40;;;;;;;24.61;39.01;100744.58;108227;1256;73134;-66
2023/04/10 09:21:18;;;;;;;14.80;10.70;;;;;;;24.97;37.85;100740.00;108256;1251;70066;-66
2023/04/10 09:23:47;;;;;;;15.30;10.70;;;;;;;25.19;37.08;100742.20;108241;1251;71534;-67
2023/04/10 09:26:25;;;;;;;19.20;10.60;;;;;;;24.93;36.54;100750.37;108208;1251;61221;-67
2023/04/10 09:28:56;;;;;;;12.60;9.70;;;;;;;24.83;36.89;100741.69;108191;1251;61080;-67
2023/04/10 09:31:35;;;;;;;15.20;9.50;;;;;;;25.10;36.61;100743.20;108220;1251;73895;-67
2023/04/10 09:34:07;;;;;;;14.00;9.30;;;;;;;25.14;36.01;100741.70;108247;1251;71712;-67
2023/04/10 09:36:36;;;;;;;11.70;8.50;;;;;;;25.11;35.92;100747.73;108189;1251;73295;-66
2023/04/10 09:39:07;;;;;;;;;;;;;;;25.26;35.95;100749.66;108273;1251;62969;-66
2023/04/10 09:41:54;;;;;;;15.20;10.30;;;;;;;25.29;36.53;100753.38;108258;1251;59777;-68
2023/04/10 09:44:30;;;;;;;14.90;10.60;;;;;;;25.17;37.08;100750.65;108221;1251;74287;-66
2023/04/10 09:47:19;;;;;;;15.20;11.50;;;;;;;25.46;36.72;100751.64;108249;1251;71257;-66
2023/04/10 09:49:52;;;;;;;13.50;9.20;;;;;;;25.33;37.23;100758.75;108226;1255;73445;-67
2023/04/10 09:52:32;;;;;;;16.30;10.70;;;;;;;24.99;36.97;100752.38;108244;1251;63038;-67
2023/04/10 09:55:07;;;;;;;12.00;9.20;;;;;;;24.85;37.64;100750.58;108212;1256;60404;-66
2023/04/10 09:57:35;;;;;;;16.40;8.40;;;;;;;24.91;37.67;100754.69;108225;1251;72335;-67
2023/04/10 10:00:09;;;;;;;14.20;8.30;;;;;;;24.91;37.38;100751.06;108186;1251;71723;-67
2023/04/10 10:02:38;;;;;;;9.60;7.50;;;;;;;25.06;36.86;100748.17;108233;1251;70781;-67
2023/04/10 10:05:07;;;;;;;9.40;7.70;;;;;;;24.70;37.54;100750.02;108271;1251;63083;-66
2023/04/10 10:07:40;;;;;;;9.60;7.80;;;;;;;24.69;37.98;100750.48;108269;1251;60865;-67
2023/04/10 10:10:08;;;;;;;10.30;8.00;;;;;;;24.66;37.86;100752.71;108185;1251;74333;-67
2023/04/10 10:13:01;;;;;;;10.10;7.80;;;;;;;24.65;37.74;100755.54;108225;1251;71626;-66
2023/04/10 10:15:45;;;;;;;10.40;7.90;;;;;;;24.88;37.10;100751.22;108266;1251;71773;-66
2023/04/10 10:18:21;;;;;;;11.30;7.70;;;;;;;25.02;37.05;100748.67;108258;1256;61911;-67
2023/04/10 10:20:50;;;;;;;13.10;6.90;;;;;;;25.10;36.86;100749.05;108247;1251;61109;-67
2023/04/10 10:23:25;;;;;;;9.90;6.90;;;;;;;25.52;36.24;100745.56;108148;1251;74659;-67
2023/04/10 10:25:53;;;;;;;8.90;6.80;;;;;;;25.72;36.20;100740.64;108271;1256;71298;-66
2023/04/10 10:28:22;;;;;;;8.10;6.30;;;;;;;25.91;35.80;100742.89;108250;1251;73870;-67
2023/04/10 10:30:51;;;;;;;9.90;7.70;;;;;;;25.95;35.39;100743.44;108167;1251;63227;-67
2023/04/10 10:33:21;;;;;;;7.30;5.80;;;;;;;25.93;35.50;100742.36;108303;1251;61024;-67
2023/04/10 10:35:49;;;;;;;7.80;5.70;;;;;;;25.87;35.14;100739.34;108308;1251;74050;-67
2023/04/10 10:38:26;;;;;;;8.40;6.00;;;;;;;26.01;34.88;100738.39;108228;1251;70699;-66
2023/04/10 10:41:00;;;;;;;12.80;6.10;;;;;;;26.02;34.59;100740.63;108312;1251;71780;-67
2023/04/10 10:43:43;;;;;;;7.60;5.30;;;;;;;26.32;33.56;100738.06;108229;1251;60203;-67
2023/04/10 10:46:45;;;;;;;8.20;6.40;;;;;;;26.38;34.23;100734.73;108263;1251;59409;-67
2023/04/10 10:49:13;;;;;;;9.90;6.50;;;;;;;26.80;33.96;100730.41;107968;1253;72419;-66
2023/04/10 10:51:43;;;;;;;7.60;5.50;;;;;;;26.38;34.18;100728.60;108150;1253;70904;-68
2023/04/10 10:54:33;;;;;;;9.30;5.70;;;;;;;26.79;34.03;100722.21;108104;1253;73396;-67
2023/04/10 10:57:08;;;;;;;9.30;5.80;;;;;;;27.19;33.13;100727.95;108102;1253;62415;-67
2023/04/10 10:59:42;;;;;;;8.50;5.80;;;;;;;27.25;32.50;100728.48;107942;1254;60556;-67
2023/04/10 11:02:16;;;;;;;10.40;6.30;;;;;;;27.17;33.02;100727.96;108111;1254;74233;-68
2023/04/10 11:04:47;;;;;;;10.30;6.10;;;;;;;26.87;33.57;100730.48;108070;1253;69352;-67
2023/04/10 11:07:15;;;;;;;14.70;6.70;;;;;;;27.03;33.19;100728.43;108010;1253;73825;-67
2023/04/10 11:09:52;;;;;;;9.90;6.50;;;;;;;26.35;34.12;100731.23;108029;1253;61925;-67
2023/04/10 11:12:24;;;;;;;12.80;8.00;;;;;;;26.64;34.20;100725.29;108043;1253;60094;-67
2023/04/10 11:14:57;;;;;;;12.40;7.40;;;;;;;26.52;34.29;100727.28;108078;1253;73445;-67
2023/04/10 11:17:49;;;;;;;13.80;7.50;;;;;;;26.36;34.66;100725.92;108163;1253;71317;-67
2023/04/10 11:20:26;;;;;;;13.30;7.70;;;;;;;26.39;34.61;100725.52;108123;1253;73791;-67
2023/04/10 11:23:08;;;;;;;10.00;7.20;;;;;;;26.78;34.30;100723.83;108157;1254;59763;-67
2023/04/10 11:25:51;;;;;;;12.00;7.50;;;;;;;26.67;34.22;100723.21;108128;1253;60732;-67
2023/04/10 11:28:37;;;;;;;11.20;7.70;;;;;;;27.06;33.61;100724.34;108115;1256;73317;-67
2023/04/10 11:31:21;;;;;;;12.90;7.40;;;;;;;27.16;33.42;100721.74;108127;1254;71564;-67
2023/04/10 11:33:59;;;;;;;11.20;6.90;;;;;;;26.98;33.46;100717.04;108099;1254;70637;-67
2023/04/10 11:36:27;;;;;;;9.10;7.30;;;;;;;26.99;33.09;100713.99;108000;1256;63077;-67
2023/04/10 11:39:08;;;;;;;16.10;7.80;;;;;;;27.30;32.98;100710.09;108090;1253;60527;-67